Impacts METAR Board
IDs:

KDEN - Denver Intl, CO, US

Updated at: 2100 UTC 08 Feb 2023
Potential Impact None Slight Moderate High
Time 08/09Z 08/10Z 08/11Z 08/12Z 08/13Z 08/14Z 08/15Z 08/16Z 08/17Z 08/18Z 08/19Z 08/20Z 08/21Z
Temp22 23 22 21 23 22 26 30 35 38 39 41 41
Dewpt19 18 17 15 16 14 13 17 21 24 27 26 25
Altim30.11 30.09 30.08 30.08 30.06 30.05 30.05 30.03 30.02 30.01 29.99 29.96 29.94
VIS10 10 10 10 10 10 10 10 10 10 10 10 10
CIG-- -- -- -- -- -- -- -- -- -- -- -- 200
CoverCLRCLRCLRCLRCLRFEWFEWFEWFEWFEWFEWFEWBKN
FltCatVFRVFRVFRVFRVFRVFRVFRVFRVFRVFRVFRVFRVFR
WX--------------------------
WDir26025024022022021021021020018015014070
WSpd4 6 8 8 10 10 13 12 9 6 4 6 4
WGst-- -- -- -- -- -- -- -- -- -- -- -- --
Raw hourly METARs
KDEN 080853Z 26004KT 10SM CLR M06/M07 A3011 RMK AO2 SLP213 T10561072 58008
KDEN 080953Z 25006KT 10SM CLR M05/M08 A3009 RMK AO2 SLP205 T10501078
KDEN 081053Z 24008KT 10SM CLR M06/M08 A3008 RMK AO2 SLP205 T10561083
KDEN 081153Z 22008KT 10SM CLR M06/M09 A3008 RMK AO2 SLP209 T10611094 11011 21061 56009
KDEN 081253Z 22010KT 10SM CLR M05/M09 A3006 RMK AO2 SLP203 T10501089
KDEN 081353Z 21010KT 10SM FEW220 M06/M10 A3005 RMK AO2 SLP206 T10561100
KDEN 081453Z 21013KT 10SM FEW090 FEW220 M03/M11 A3005 RMK AO2 SLP204 T10331106 56008
KDEN 081553Z 21012KT 10SM FEW090 FEW220 M01/M08 A3003 RMK AO2 SLP193 T10111083
KDEN 081653Z 20009KT 10SM FEW090 FEW140 02/M06 A3002 RMK AO2 SLP177 T00171061
KDEN 081753Z 18006KT 10SM FEW090 FEW140 03/M04 A3001 RMK AO2 SLP168 T00331044 10033 21061 56010
KDEN 081853Z 15004KT 10SM FEW090 FEW150 04/M03 A2999 RMK AO2 SLP162 T00391028
KDEN 081953Z 14006KT 10SM FEW090 FEW150 FEW220 05/M03 A2996 RMK AO2 SLP150 T00501033
KDEN 082053Z 07004KT 10SM FEW090 SCT150 BKN200 05/M04 A2994 RMK AO2 SLP150 T00501039 56020



Page loaded:  21:14 UTC  |   01:14 PM Pacific  |   02:14 PM Mountain  |   03:14 PM Central  |   04:14 PM Eastern

 

ADVISORIES

FORECASTS

FORECASTS

OBSERVATIONS

USER TOOLS

ABOUT US